sensor_id;sensor_type;location;lat;lon;timestamp;P1;durP1;ratioP1;P2;durP2;ratioP2
51838;SDS011;37886;53.174;6.368;2023-03-18T00:00:05;22.88;;;18.77;;
51838;SDS011;37886;53.174;6.368;2023-03-18T00:02:38;27.60;;;20.83;;
51838;SDS011;37886;53.174;6.368;2023-03-18T00:05:05;25.15;;;19.45;;
51838;SDS011;37886;53.174;6.368;2023-03-18T00:07:31;27.73;;;20.58;;
51838;SDS011;37886;53.174;6.368;2023-03-18T00:09:58;27.38;;;19.23;;
51838;SDS011;37886;53.174;6.368;2023-03-18T00:12:24;21.38;;;18.75;;
51838;SDS011;37886;53.174;6.368;2023-03-18T00:14:50;26.20;;;18.70;;
51838;SDS011;37886;53.174;6.368;2023-03-18T00:17:16;25.90;;;19.40;;
51838;SDS011;37886;53.174;6.368;2023-03-18T00:19:42;26.48;;;19.17;;
51838;SDS011;37886;53.174;6.368;2023-03-18T00:22:07;26.23;;;17.80;;
51838;SDS011;37886;53.174;6.368;2023-03-18T00:24:34;27.55;;;18.75;;
51838;SDS011;37886;53.174;6.368;2023-03-18T00:27:01;23.23;;;18.33;;
51838;SDS011;37886;53.174;6.368;2023-03-18T00:29:28;25.85;;;17.88;;
51838;SDS011;37886;53.174;6.368;2023-03-18T00:31:54;24.50;;;18.50;;
51838;SDS011;37886;53.174;6.368;2023-03-18T00:34:22;25.23;;;18.45;;
51838;SDS011;37886;53.174;6.368;2023-03-18T00:36:47;25.70;;;18.90;;
51838;SDS011;37886;53.174;6.368;2023-03-18T00:39:16;31.90;;;20.23;;
51838;SDS011;37886;53.174;6.368;2023-03-18T00:41:45;26.15;;;19.17;;
51838;SDS011;37886;53.174;6.368;2023-03-18T00:44:12;23.42;;;17.77;;
51838;SDS011;37886;53.174;6.368;2023-03-18T00:46:38;24.58;;;18.55;;
51838;SDS011;37886;53.174;6.368;2023-03-18T00:49:05;23.40;;;18.02;;
51838;SDS011;37886;53.174;6.368;2023-03-18T00:51:33;25.77;;;18.73;;
51838;SDS011;37886;53.174;6.368;2023-03-18T00:54:02;28.63;;;20.23;;
51838;SDS011;37886;53.174;6.368;2023-03-18T00:56:33;24.98;;;19.42;;
51838;SDS011;37886;53.174;6.368;2023-03-18T00:59:00;24.25;;;20.38;;
51838;SDS011;37886;53.174;6.368;2023-03-18T01:01:27;28.67;;;19.17;;
51838;SDS011;37886;53.174;6.368;2023-03-18T01:03:53;34.50;;;21.00;;
51838;SDS011;37886;53.174;6.368;2023-03-18T01:06:26;29.88;;;22.17;;
51838;SDS011;37886;53.174;6.368;2023-03-18T01:08:53;27.83;;;22.45;;
51838;SDS011;37886;53.174;6.368;2023-03-18T01:11:20;33.63;;;23.05;;
51838;SDS011;37886;53.174;6.368;2023-03-18T01:13:47;32.45;;;23.67;;
51838;SDS011;37886;53.174;6.368;2023-03-18T01:16:13;32.42;;;25.35;;
51838;SDS011;37886;53.174;6.368;2023-03-18T01:18:40;36.67;;;24.45;;
51838;SDS011;37886;53.174;6.368;2023-03-18T01:21:08;30.63;;;24.70;;
51838;SDS011;37886;53.174;6.368;2023-03-18T01:23:35;34.05;;;26.45;;
51838;SDS011;37886;53.174;6.368;2023-03-18T01:26:01;41.45;;;26.98;;
51838;SDS011;37886;53.174;6.368;2023-03-18T01:28:27;35.40;;;27.23;;
51838;SDS011;37886;53.174;6.368;2023-03-18T01:30:53;39.40;;;29.17;;
51838;SDS011;37886;53.174;6.368;2023-03-18T01:33:21;38.15;;;29.20;;
51838;SDS011;37886;53.174;6.368;2023-03-18T01:35:53;37.92;;;28.67;;
51838;SDS011;37886;53.174;6.368;2023-03-18T01:38:20;40.60;;;30.83;;
51838;SDS011;37886;53.174;6.368;2023-03-18T01:40:48;42.35;;;31.25;;
51838;SDS011;37886;53.174;6.368;2023-03-18T01:43:22;39.13;;;31.10;;
51838;SDS011;37886;53.174;6.368;2023-03-18T01:45:51;42.17;;;32.55;;
51838;SDS011;37886;53.174;6.368;2023-03-18T01:48:19;47.35;;;33.55;;
51838;SDS011;37886;53.174;6.368;2023-03-18T01:50:49;43.58;;;33.05;;
51838;SDS011;37886;53.174;6.368;2023-03-18T01:53:19;46.47;;;34.80;;
51838;SDS011;37886;53.174;6.368;2023-03-18T01:55:47;46.15;;;35.08;;
51838;SDS011;37886;53.174;6.368;2023-03-18T01:58:17;45.92;;;35.25;;
51838;SDS011;37886;53.174;6.368;2023-03-18T02:00:50;46.70;;;35.40;;
51838;SDS011;37886;53.174;6.368;2023-03-18T02:03:19;46.30;;;36.63;;
51838;SDS011;37886;53.174;6.368;2023-03-18T02:05:47;45.53;;;35.85;;
51838;SDS011;37886;53.174;6.368;2023-03-18T02:08:14;49.08;;;36.47;;
51838;SDS011;37886;53.174;6.368;2023-03-18T02:10:41;51.72;;;38.83;;
51838;SDS011;37886;53.174;6.368;2023-03-18T02:13:08;53.28;;;38.70;;
51838;SDS011;37886;53.174;6.368;2023-03-18T02:15:39;52.15;;;40.80;;
51838;SDS011;37886;53.174;6.368;2023-03-18T02:24:08;51.90;;;40.30;;
51838;SDS011;37886;53.174;6.368;2023-03-18T02:29:30;57.78;;;43.63;;
51838;SDS011;37886;53.174;6.368;2023-03-18T02:32:02;53.42;;;43.33;;
51838;SDS011;37886;53.174;6.368;2023-03-18T02:34:30;59.22;;;43.05;;
51838;SDS011;37886;53.174;6.368;2023-03-18T02:36:58;55.97;;;42.65;;
51838;SDS011;37886;53.174;6.368;2023-03-18T02:39:24;54.80;;;42.25;;
51838;SDS011;37886;53.174;6.368;2023-03-18T02:41:50;60.17;;;43.92;;
51838;SDS011;37886;53.174;6.368;2023-03-18T02:44:17;56.22;;;43.53;;
51838;SDS011;37886;53.174;6.368;2023-03-18T02:46:53;60.40;;;43.90;;
51838;SDS011;37886;53.174;6.368;2023-03-18T02:49:23;52.53;;;43.30;;
51838;SDS011;37886;53.174;6.368;2023-03-18T02:51:51;58.55;;;44.30;;
51838;SDS011;37886;53.174;6.368;2023-03-18T02:54:21;60.05;;;47.30;;
51838;SDS011;37886;53.174;6.368;2023-03-18T02:56:48;60.95;;;47.22;;
51838;SDS011;37886;53.174;6.368;2023-03-18T02:59:15;59.47;;;47.75;;
51838;SDS011;37886;53.174;6.368;2023-03-18T03:01:41;62.42;;;47.58;;
51838;SDS011;37886;53.174;6.368;2023-03-18T03:04:08;62.22;;;49.40;;
51838;SDS011;37886;53.174;6.368;2023-03-18T03:06:36;68.05;;;49.47;;
51838;SDS011;37886;53.174;6.368;2023-03-18T03:09:06;64.53;;;49.28;;
51838;SDS011;37886;53.174;6.368;2023-03-18T03:11:34;65.63;;;49.13;;
51838;SDS011;37886;53.174;6.368;2023-03-18T03:14:01;68.53;;;52.08;;
51838;SDS011;37886;53.174;6.368;2023-03-18T03:16:27;66.60;;;51.85;;
51838;SDS011;37886;53.174;6.368;2023-03-18T03:18:56;68.90;;;50.72;;
51838;SDS011;37886;53.174;6.368;2023-03-18T03:21:22;72.25;;;52.53;;
51838;SDS011;37886;53.174;6.368;2023-03-18T03:23:50;63.10;;;48.55;;
51838;SDS011;37886;53.174;6.368;2023-03-18T03:26:17;67.18;;;49.17;;
51838;SDS011;37886;53.174;6.368;2023-03-18T03:28:43;69.85;;;52.47;;
51838;SDS011;37886;53.174;6.368;2023-03-18T03:31:09;65.95;;;51.80;;
51838;SDS011;37886;53.174;6.368;2023-03-18T03:33:36;66.75;;;51.83;;
51838;SDS011;37886;53.174;6.368;2023-03-18T03:36:06;75.43;;;52.85;;
51838;SDS011;37886;53.174;6.368;2023-03-18T03:38:33;69.82;;;52.95;;
51838;SDS011;37886;53.174;6.368;2023-03-18T03:40:59;68.50;;;51.25;;
51838;SDS011;37886;53.174;6.368;2023-03-18T03:43:24;72.25;;;52.40;;
51838;SDS011;37886;53.174;6.368;2023-03-18T03:45:50;69.95;;;52.67;;
51838;SDS011;37886;53.174;6.368;2023-03-18T03:48:16;72.32;;;52.40;;
51838;SDS011;37886;53.174;6.368;2023-03-18T03:50:42;69.10;;;51.65;;
51838;SDS011;37886;53.174;6.368;2023-03-18T03:53:07;67.82;;;51.63;;
51838;SDS011;37886;53.174;6.368;2023-03-18T03:55:34;73.00;;;52.50;;
51838;SDS011;37886;53.174;6.368;2023-03-18T03:58:00;76.47;;;53.35;;
51838;SDS011;37886;53.174;6.368;2023-03-18T04:00:26;74.90;;;53.38;;
51838;SDS011;37886;53.174;6.368;2023-03-18T04:02:52;71.55;;;52.20;;
51838;SDS011;37886;53.174;6.368;2023-03-18T04:05:19;71.80;;;50.33;;
51838;SDS011;37886;53.174;6.368;2023-03-18T04:07:46;71.13;;;51.63;;
51838;SDS011;37886;53.174;6.368;2023-03-18T04:10:14;74.03;;;52.38;;
51838;SDS011;37886;53.174;6.368;2023-03-18T04:12:41;72.55;;;52.20;;
51838;SDS011;37886;53.174;6.368;2023-03-18T04:15:10;73.72;;;51.25;;
51838;SDS011;37886;53.174;6.368;2023-03-18T04:17:37;76.32;;;52.72;;
51838;SDS011;37886;53.174;6.368;2023-03-18T04:20:04;69.25;;;51.95;;
51838;SDS011;37886;53.174;6.368;2023-03-18T04:22:31;69.20;;;52.25;;
51838;SDS011;37886;53.174;6.368;2023-03-18T04:24:57;75.90;;;52.08;;
51838;SDS011;37886;53.174;6.368;2023-03-18T04:27:23;78.30;;;50.28;;
51838;SDS011;37886;53.174;6.368;2023-03-18T04:29:49;72.32;;;50.40;;
51838;SDS011;37886;53.174;6.368;2023-03-18T04:32:15;71.35;;;51.75;;
51838;SDS011;37886;53.174;6.368;2023-03-18T04:34:41;76.97;;;53.55;;
51838;SDS011;37886;53.174;6.368;2023-03-18T04:37:06;66.70;;;48.80;;
51838;SDS011;37886;53.174;6.368;2023-03-18T04:39:34;73.00;;;50.95;;
51838;SDS011;37886;53.174;6.368;2023-03-18T04:42:03;68.20;;;50.40;;
51838;SDS011;37886;53.174;6.368;2023-03-18T04:44:29;71.05;;;51.95;;
51838;SDS011;37886;53.174;6.368;2023-03-18T04:46:55;70.53;;;51.00;;
51838;SDS011;37886;53.174;6.368;2023-03-18T04:49:21;68.15;;;50.33;;
51838;SDS011;37886;53.174;6.368;2023-03-18T04:51:47;72.80;;;49.90;;
51838;SDS011;37886;53.174;6.368;2023-03-18T04:54:13;71.57;;;51.53;;
51838;SDS011;37886;53.174;6.368;2023-03-18T04:56:38;70.53;;;48.17;;
51838;SDS011;37886;53.174;6.368;2023-03-18T04:59:06;74.07;;;50.38;;
51838;SDS011;37886;53.174;6.368;2023-03-18T05:01:31;68.20;;;48.00;;
51838;SDS011;37886;53.174;6.368;2023-03-18T05:03:58;65.50;;;46.88;;
51838;SDS011;37886;53.174;6.368;2023-03-18T05:06:24;68.63;;;47.25;;
51838;SDS011;37886;53.174;6.368;2023-03-18T05:08:52;71.72;;;48.53;;
51838;SDS011;37886;53.174;6.368;2023-03-18T05:11:17;70.80;;;48.85;;
51838;SDS011;37886;53.174;6.368;2023-03-18T05:13:44;86.80;;;53.60;;
51838;SDS011;37886;53.174;6.368;2023-03-18T05:16:10;80.45;;;51.78;;
51838;SDS011;37886;53.174;6.368;2023-03-18T05:18:36;83.13;;;51.72;;
51838;SDS011;37886;53.174;6.368;2023-03-18T05:21:03;76.22;;;49.20;;
51838;SDS011;37886;53.174;6.368;2023-03-18T05:23:29;84.45;;;52.15;;
51838;SDS011;37886;53.174;6.368;2023-03-18T05:25:56;84.28;;;48.97;;
51838;SDS011;37886;53.174;6.368;2023-03-18T05:28:21;87.90;;;50.88;;
51838;SDS011;37886;53.174;6.368;2023-03-18T05:30:48;82.00;;;49.60;;
51838;SDS011;37886;53.174;6.368;2023-03-18T05:33:13;85.05;;;49.35;;
51838;SDS011;37886;53.174;6.368;2023-03-18T05:35:39;86.18;;;49.60;;
51838;SDS011;37886;53.174;6.368;2023-03-18T05:38:05;81.00;;;50.40;;
51838;SDS011;37886;53.174;6.368;2023-03-18T05:40:31;86.93;;;49.05;;
51838;SDS011;37886;53.174;6.368;2023-03-18T05:42:57;110.35;;;54.15;;
51838;SDS011;37886;53.174;6.368;2023-03-18T05:45:24;109.05;;;53.95;;
51838;SDS011;37886;53.174;6.368;2023-03-18T05:47:50;96.38;;;51.80;;
51838;SDS011;37886;53.174;6.368;2023-03-18T05:52:55;104.60;;;51.33;;
51838;SDS011;37886;53.174;6.368;2023-03-18T05:55:21;107.90;;;53.50;;
51838;SDS011;37886;53.174;6.368;2023-03-18T05:57:47;109.00;;;54.38;;
51838;SDS011;37886;53.174;6.368;2023-03-18T06:00:13;109.97;;;55.40;;
51838;SDS011;37886;53.174;6.368;2023-03-18T06:02:39;109.70;;;53.72;;
51838;SDS011;37886;53.174;6.368;2023-03-18T06:05:05;104.35;;;54.63;;
51838;SDS011;37886;53.174;6.368;2023-03-18T06:07:32;102.25;;;53.33;;
51838;SDS011;37886;53.174;6.368;2023-03-18T06:09:58;101.18;;;54.10;;
51838;SDS011;37886;53.174;6.368;2023-03-18T06:12:25;109.85;;;56.63;;
51838;SDS011;37886;53.174;6.368;2023-03-18T06:14:52;107.28;;;55.20;;
51838;SDS011;37886;53.174;6.368;2023-03-18T06:17:18;95.30;;;52.40;;
51838;SDS011;37886;53.174;6.368;2023-03-18T06:19:44;99.25;;;54.33;;
51838;SDS011;37886;53.174;6.368;2023-03-18T06:22:10;95.55;;;51.88;;
51838;SDS011;37886;53.174;6.368;2023-03-18T06:24:36;95.10;;;55.70;;
51838;SDS011;37886;53.174;6.368;2023-03-18T06:27:02;97.63;;;55.47;;
51838;SDS011;37886;53.174;6.368;2023-03-18T06:29:29;92.75;;;54.22;;
51838;SDS011;37886;53.174;6.368;2023-03-18T06:31:55;102.65;;;57.08;;
51838;SDS011;37886;53.174;6.368;2023-03-18T06:34:21;97.53;;;56.75;;
51838;SDS011;37886;53.174;6.368;2023-03-18T06:36:47;94.97;;;55.78;;
51838;SDS011;37886;53.174;6.368;2023-03-18T06:39:13;82.85;;;52.70;;
51838;SDS011;37886;53.174;6.368;2023-03-18T06:41:39;85.30;;;53.05;;
51838;SDS011;37886;53.174;6.368;2023-03-18T06:44:04;93.85;;;54.78;;
51838;SDS011;37886;53.174;6.368;2023-03-18T06:46:31;83.35;;;53.42;;
51838;SDS011;37886;53.174;6.368;2023-03-18T06:48:56;84.18;;;54.33;;
51838;SDS011;37886;53.174;6.368;2023-03-18T06:51:22;88.88;;;54.53;;
51838;SDS011;37886;53.174;6.368;2023-03-18T06:53:48;83.20;;;54.30;;
51838;SDS011;37886;53.174;6.368;2023-03-18T06:56:15;90.00;;;55.88;;
51838;SDS011;37886;53.174;6.368;2023-03-18T06:58:41;90.82;;;56.10;;
51838;SDS011;37886;53.174;6.368;2023-03-18T07:01:07;86.15;;;54.20;;
51838;SDS011;37886;53.174;6.368;2023-03-18T07:03:33;87.70;;;57.20;;
51838;SDS011;37886;53.174;6.368;2023-03-18T07:05:59;80.43;;;55.58;;
51838;SDS011;37886;53.174;6.368;2023-03-18T07:08:26;84.15;;;55.80;;
51838;SDS011;37886;53.174;6.368;2023-03-18T07:10:53;84.85;;;55.25;;
51838;SDS011;37886;53.174;6.368;2023-03-18T07:13:19;81.80;;;56.65;;
51838;SDS011;37886;53.174;6.368;2023-03-18T07:15:45;84.05;;;54.97;;
51838;SDS011;37886;53.174;6.368;2023-03-18T07:18:11;81.57;;;54.58;;
51838;SDS011;37886;53.174;6.368;2023-03-18T07:20:38;79.40;;;53.95;;
51838;SDS011;37886;53.174;6.368;2023-03-18T07:23:04;81.75;;;52.40;;
51838;SDS011;37886;53.174;6.368;2023-03-18T07:25:30;77.80;;;53.13;;
51838;SDS011;37886;53.174;6.368;2023-03-18T07:27:56;77.80;;;53.17;;
51838;SDS011;37886;53.174;6.368;2023-03-18T07:30:24;67.68;;;51.20;;
51838;SDS011;37886;53.174;6.368;2023-03-18T07:32:51;76.93;;;50.20;;
51838;SDS011;37886;53.174;6.368;2023-03-18T07:35:17;71.13;;;50.97;;
51838;SDS011;37886;53.174;6.368;2023-03-18T07:37:43;66.63;;;49.60;;
51838;SDS011;37886;53.174;6.368;2023-03-18T07:40:09;68.22;;;48.00;;
51838;SDS011;37886;53.174;6.368;2023-03-18T07:42:36;67.07;;;48.78;;
51838;SDS011;37886;53.174;6.368;2023-03-18T07:45:03;70.00;;;50.10;;
51838;SDS011;37886;53.174;6.368;2023-03-18T07:47:29;64.60;;;45.92;;
51838;SDS011;37886;53.174;6.368;2023-03-18T07:49:55;67.63;;;48.47;;
51838;SDS011;37886;53.174;6.368;2023-03-18T07:52:21;63.90;;;47.85;;
51838;SDS011;37886;53.174;6.368;2023-03-18T07:54:47;64.18;;;47.83;;
51838;SDS011;37886;53.174;6.368;2023-03-18T07:57:13;62.90;;;47.63;;
51838;SDS011;37886;53.174;6.368;2023-03-18T07:59:39;62.97;;;47.75;;
51838;SDS011;37886;53.174;6.368;2023-03-18T08:02:05;62.30;;;44.97;;
51838;SDS011;37886;53.174;6.368;2023-03-18T08:04:32;60.13;;;46.80;;
51838;SDS011;37886;53.174;6.368;2023-03-18T08:06:57;64.22;;;46.65;;
51838;SDS011;37886;53.174;6.368;2023-03-18T08:09:24;61.22;;;46.92;;
51838;SDS011;37886;53.174;6.368;2023-03-18T08:11:51;71.88;;;46.70;;
51838;SDS011;37886;53.174;6.368;2023-03-18T08:14:18;60.17;;;45.05;;
51838;SDS011;37886;53.174;6.368;2023-03-18T08:16:43;59.80;;;43.08;;
51838;SDS011;37886;53.174;6.368;2023-03-18T08:19:09;58.47;;;42.63;;
51838;SDS011;37886;53.174;6.368;2023-03-18T08:21:36;55.90;;;40.83;;
51838;SDS011;37886;53.174;6.368;2023-03-18T08:24:02;57.25;;;42.28;;
51838;SDS011;37886;53.174;6.368;2023-03-18T08:26:27;54.60;;;41.72;;
51838;SDS011;37886;53.174;6.368;2023-03-18T08:28:53;54.50;;;42.85;;
51838;SDS011;37886;53.174;6.368;2023-03-18T08:31:19;55.40;;;42.15;;
51838;SDS011;37886;53.174;6.368;2023-03-18T08:33:45;57.45;;;41.92;;
51838;SDS011;37886;53.174;6.368;2023-03-18T08:36:11;56.38;;;42.55;;
51838;SDS011;37886;53.174;6.368;2023-03-18T08:38:38;57.13;;;42.70;;
51838;SDS011;37886;53.174;6.368;2023-03-18T08:41:04;52.33;;;42.00;;
51838;SDS011;37886;53.174;6.368;2023-03-18T08:43:30;53.20;;;42.35;;
51838;SDS011;37886;53.174;6.368;2023-03-18T08:45:56;56.42;;;41.85;;
51838;SDS011;37886;53.174;6.368;2023-03-18T08:48:23;54.97;;;42.53;;
51838;SDS011;37886;53.174;6.368;2023-03-18T08:50:49;54.78;;;41.42;;
51838;SDS011;37886;53.174;6.368;2023-03-18T08:53:15;59.03;;;43.20;;
51838;SDS011;37886;53.174;6.368;2023-03-18T08:55:41;56.33;;;42.63;;
51838;SDS011;37886;53.174;6.368;2023-03-18T08:58:07;63.05;;;43.55;;
51838;SDS011;37886;53.174;6.368;2023-03-18T09:00:34;55.78;;;42.03;;
51838;SDS011;37886;53.174;6.368;2023-03-18T09:03:01;51.35;;;40.95;;
51838;SDS011;37886;53.174;6.368;2023-03-18T09:05:28;53.10;;;41.25;;
51838;SDS011;37886;53.174;6.368;2023-03-18T09:07:54;56.83;;;42.95;;
51838;SDS011;37886;53.174;6.368;2023-03-18T09:10:20;55.33;;;42.55;;
51838;SDS011;37886;53.174;6.368;2023-03-18T09:12:46;50.80;;;40.40;;
51838;SDS011;37886;53.174;6.368;2023-03-18T09:15:14;56.35;;;41.03;;
51838;SDS011;37886;53.174;6.368;2023-03-18T09:17:41;53.97;;;40.58;;
51838;SDS011;37886;53.174;6.368;2023-03-18T09:20:08;52.92;;;41.60;;
51838;SDS011;37886;53.174;6.368;2023-03-18T09:22:36;53.08;;;41.22;;
51838;SDS011;37886;53.174;6.368;2023-03-18T09:25:02;51.17;;;41.80;;
51838;SDS011;37886;53.174;6.368;2023-03-18T09:27:28;53.90;;;39.97;;
51838;SDS011;37886;53.174;6.368;2023-03-18T09:29:54;52.88;;;40.05;;
51838;SDS011;37886;53.174;6.368;2023-03-18T09:32:20;56.85;;;41.47;;
51838;SDS011;37886;53.174;6.368;2023-03-18T09:34:46;52.88;;;39.58;;
51838;SDS011;37886;53.174;6.368;2023-03-18T09:37:12;52.80;;;40.35;;
51838;SDS011;37886;53.174;6.368;2023-03-18T09:39:39;49.33;;;39.80;;
51838;SDS011;37886;53.174;6.368;2023-03-18T09:44:57;48.25;;;40.85;;
51838;SDS011;37886;53.174;6.368;2023-03-18T09:47:33;50.17;;;38.37;;
51838;SDS011;37886;53.174;6.368;2023-03-18T09:50:26;50.92;;;39.67;;
51838;SDS011;37886;53.174;6.368;2023-03-18T09:55:57;52.22;;;38.25;;
51838;SDS011;37886;53.174;6.368;2023-03-18T10:00:52;52.08;;;40.92;;
51838;SDS011;37886;53.174;6.368;2023-03-18T10:03:25;50.92;;;41.17;;
51838;SDS011;37886;53.174;6.368;2023-03-18T10:05:53;49.80;;;39.10;;
51838;SDS011;37886;53.174;6.368;2023-03-18T10:08:41;51.22;;;39.63;;
51838;SDS011;37886;53.174;6.368;2023-03-18T10:14:09;47.03;;;38.83;;
51838;SDS011;37886;53.174;6.368;2023-03-18T10:17:10;53.63;;;38.83;;
51838;SDS011;37886;53.174;6.368;2023-03-18T10:19:48;48.80;;;39.38;;
51838;SDS011;37886;53.174;6.368;2023-03-18T10:25:15;53.58;;;38.13;;
51838;SDS011;37886;53.174;6.368;2023-03-18T10:35:54;49.25;;;38.97;;
51838;SDS011;37886;53.174;6.368;2023-03-18T10:38:36;49.17;;;39.45;;
51838;SDS011;37886;53.174;6.368;2023-03-18T10:41:20;44.03;;;38.08;;
51838;SDS011;37886;53.174;6.368;2023-03-18T10:43:51;43.15;;;33.95;;
51838;SDS011;37886;53.174;6.368;2023-03-18T10:46:19;45.83;;;35.95;;
51838;SDS011;37886;53.174;6.368;2023-03-18T10:49:22;42.78;;;35.22;;
51838;SDS011;37886;53.174;6.368;2023-03-18T10:51:49;44.60;;;35.40;;
51838;SDS011;37886;53.174;6.368;2023-03-18T10:56:46;39.80;;;31.88;;
51838;SDS011;37886;53.174;6.368;2023-03-18T10:59:14;37.75;;;32.25;;
51838;SDS011;37886;53.174;6.368;2023-03-18T11:01:53;38.78;;;30.58;;
51838;SDS011;37886;53.174;6.368;2023-03-18T11:04:25;32.88;;;28.63;;
51838;SDS011;37886;53.174;6.368;2023-03-18T11:06:56;33.78;;;27.77;;
51838;SDS011;37886;53.174;6.368;2023-03-18T11:09:35;31.52;;;26.77;;
51838;SDS011;37886;53.174;6.368;2023-03-18T11:12:13;31.73;;;26.27;;
51838;SDS011;37886;53.174;6.368;2023-03-18T11:14:45;32.53;;;28.48;;
51838;SDS011;37886;53.174;6.368;2023-03-18T11:20:38;34.05;;;28.42;;
51838;SDS011;37886;53.174;6.368;2023-03-18T11:23:12;30.98;;;26.17;;
51838;SDS011;37886;53.174;6.368;2023-03-18T11:25:59;33.15;;;28.05;;
51838;SDS011;37886;53.174;6.368;2023-03-18T11:28:28;30.60;;;24.65;;
51838;SDS011;37886;53.174;6.368;2023-03-18T11:30:55;29.00;;;23.60;;
51838;SDS011;37886;53.174;6.368;2023-03-18T11:33:23;34.67;;;25.63;;
51838;SDS011;37886;53.174;6.368;2023-03-18T11:38:33;32.05;;;25.33;;
51838;SDS011;37886;53.174;6.368;2023-03-18T11:41:04;29.60;;;22.13;;
51838;SDS011;37886;53.174;6.368;2023-03-18T11:43:32;23.23;;;19.05;;
51838;SDS011;37886;53.174;6.368;2023-03-18T11:46:02;23.88;;;19.75;;
51838;SDS011;37886;53.174;6.368;2023-03-18T11:48:34;28.05;;;20.67;;
51838;SDS011;37886;53.174;6.368;2023-03-18T11:56:18;26.50;;;20.05;;
51838;SDS011;37886;53.174;6.368;2023-03-18T11:59:14;24.23;;;20.20;;
51838;SDS011;37886;53.174;6.368;2023-03-18T12:20:54;20.58;;;17.52;;
51838;SDS011;37886;53.174;6.368;2023-03-18T12:23:31;22.77;;;20.35;;
51838;SDS011;37886;53.174;6.368;2023-03-18T12:32:05;20.63;;;17.95;;
51838;SDS011;37886;53.174;6.368;2023-03-18T12:48:51;18.05;;;16.20;;
51838;SDS011;37886;53.174;6.368;2023-03-18T12:51:39;17.20;;;15.55;;
51838;SDS011;37886;53.174;6.368;2023-03-18T12:54:20;15.50;;;14.00;;
51838;SDS011;37886;53.174;6.368;2023-03-18T12:56:52;15.32;;;13.95;;
51838;SDS011;37886;53.174;6.368;2023-03-18T12:59:35;16.60;;;15.10;;
51838;SDS011;37886;53.174;6.368;2023-03-18T13:04:38;17.60;;;15.98;;
51838;SDS011;37886;53.174;6.368;2023-03-18T13:07:15;18.95;;;16.90;;
51838;SDS011;37886;53.174;6.368;2023-03-18T13:09:56;20.25;;;16.40;;
51838;SDS011;37886;53.174;6.368;2023-03-18T13:15:04;14.85;;;13.35;;
51838;SDS011;37886;53.174;6.368;2023-03-18T13:42:05;11.82;;;10.75;;
51838;SDS011;37886;53.174;6.368;2023-03-18T13:47:28;11.95;;;9.70;;
51838;SDS011;37886;53.174;6.368;2023-03-18T13:50:06;9.43;;;8.63;;
51838;SDS011;37886;53.174;6.368;2023-03-18T13:52:55;11.82;;;9.27;;
51838;SDS011;37886;53.174;6.368;2023-03-18T14:05:42;10.88;;;9.85;;
51838;SDS011;37886;53.174;6.368;2023-03-18T14:13:50;10.07;;;9.18;;
51838;SDS011;37886;53.174;6.368;2023-03-18T14:16:22;11.45;;;10.10;;
51838;SDS011;37886;53.174;6.368;2023-03-18T14:21:47;10.45;;;9.30;;
51838;SDS011;37886;53.174;6.368;2023-03-18T14:29:49;13.20;;;9.82;;
51838;SDS011;37886;53.174;6.368;2023-03-18T14:34:59;11.10;;;9.80;;
51838;SDS011;37886;53.174;6.368;2023-03-18T14:38:03;11.00;;;10.00;;
51838;SDS011;37886;53.174;6.368;2023-03-18T14:40:43;11.27;;;10.20;;
51838;SDS011;37886;53.174;6.368;2023-03-18T14:46:00;10.85;;;9.85;;
51838;SDS011;37886;53.174;6.368;2023-03-18T14:48:52;13.88;;;10.38;;
51838;SDS011;37886;53.174;6.368;2023-03-18T14:51:19;12.05;;;10.38;;
51838;SDS011;37886;53.174;6.368;2023-03-18T14:53:48;12.30;;;10.25;;
51838;SDS011;37886;53.174;6.368;2023-03-18T14:56:24;12.63;;;10.75;;
51838;SDS011;37886;53.174;6.368;2023-03-18T14:58:54;14.68;;;10.88;;
51838;SDS011;37886;53.174;6.368;2023-03-18T15:01:39;12.75;;;11.02;;
51838;SDS011;37886;53.174;6.368;2023-03-18T15:04:12;14.50;;;11.07;;
51838;SDS011;37886;53.174;6.368;2023-03-18T15:06:42;14.32;;;11.20;;
51838;SDS011;37886;53.174;6.368;2023-03-18T15:09:09;15.55;;;11.77;;
51838;SDS011;37886;53.174;6.368;2023-03-18T15:11:43;14.57;;;11.73;;
51838;SDS011;37886;53.174;6.368;2023-03-18T15:14:24;15.20;;;12.20;;
51838;SDS011;37886;53.174;6.368;2023-03-18T15:19:22;13.95;;;11.73;;
51838;SDS011;37886;53.174;6.368;2023-03-18T15:21:48;13.60;;;10.80;;
51838;SDS011;37886;53.174;6.368;2023-03-18T15:24:15;12.45;;;11.00;;
51838;SDS011;37886;53.174;6.368;2023-03-18T15:26:54;12.95;;;11.20;;
51838;SDS011;37886;53.174;6.368;2023-03-18T15:29:23;14.48;;;11.50;;
51838;SDS011;37886;53.174;6.368;2023-03-18T15:32:06;12.95;;;11.00;;
51838;SDS011;37886;53.174;6.368;2023-03-18T15:34:40;15.63;;;12.82;;
51838;SDS011;37886;53.174;6.368;2023-03-18T15:43:04;16.20;;;11.57;;
51838;SDS011;37886;53.174;6.368;2023-03-18T15:45:53;13.50;;;11.10;;
51838;SDS011;37886;53.174;6.368;2023-03-18T15:50:59;13.98;;;12.50;;
51838;SDS011;37886;53.174;6.368;2023-03-18T15:53:40;16.05;;;12.77;;
51838;SDS011;37886;53.174;6.368;2023-03-18T15:56:13;17.02;;;12.95;;
51838;SDS011;37886;53.174;6.368;2023-03-18T15:59:03;14.52;;;12.80;;
51838;SDS011;37886;53.174;6.368;2023-03-18T16:01:49;18.05;;;14.30;;
51838;SDS011;37886;53.174;6.368;2023-03-18T16:04:16;20.67;;;14.98;;
51838;SDS011;37886;53.174;6.368;2023-03-18T16:06:42;16.83;;;15.02;;
51838;SDS011;37886;53.174;6.368;2023-03-18T16:09:16;19.73;;;15.82;;
51838;SDS011;37886;53.174;6.368;2023-03-18T16:11:43;16.90;;;15.07;;
51838;SDS011;37886;53.174;6.368;2023-03-18T16:14:14;17.05;;;14.82;;
51838;SDS011;37886;53.174;6.368;2023-03-18T16:16:45;16.88;;;15.10;;
51838;SDS011;37886;53.174;6.368;2023-03-18T16:19:17;19.17;;;15.48;;
51838;SDS011;37886;53.174;6.368;2023-03-18T16:21:51;18.10;;;16.27;;
51838;SDS011;37886;53.174;6.368;2023-03-18T16:24:22;19.90;;;14.30;;
51838;SDS011;37886;53.174;6.368;2023-03-18T16:26:49;17.80;;;16.02;;
51838;SDS011;37886;53.174;6.368;2023-03-18T16:29:17;17.88;;;16.08;;
51838;SDS011;37886;53.174;6.368;2023-03-18T16:31:51;19.10;;;16.92;;
51838;SDS011;37886;53.174;6.368;2023-03-18T16:34:17;17.10;;;15.40;;
51838;SDS011;37886;53.174;6.368;2023-03-18T16:36:44;17.00;;;15.13;;
51838;SDS011;37886;53.174;6.368;2023-03-18T16:39:18;17.63;;;15.88;;
51838;SDS011;37886;53.174;6.368;2023-03-18T16:41:58;15.73;;;14.32;;
51838;SDS011;37886;53.174;6.368;2023-03-18T16:44:24;13.35;;;12.10;;
51838;SDS011;37886;53.174;6.368;2023-03-18T16:46:51;12.65;;;11.50;;
51838;SDS011;37886;53.174;6.368;2023-03-18T16:49:20;12.73;;;10.90;;
51838;SDS011;37886;53.174;6.368;2023-03-18T16:51:57;12.90;;;10.43;;
51838;SDS011;37886;53.174;6.368;2023-03-18T16:54:32;12.00;;;10.50;;
51838;SDS011;37886;53.174;6.368;2023-03-18T16:56:59;17.70;;;16.02;;
51838;SDS011;37886;53.174;6.368;2023-03-18T16:59:30;11.70;;;9.45;;
51838;SDS011;37886;53.174;6.368;2023-03-18T17:01:58;10.80;;;9.68;;
51838;SDS011;37886;53.174;6.368;2023-03-18T17:06:54;10.77;;;9.73;;
51838;SDS011;37886;53.174;6.368;2023-03-18T17:09:21;8.45;;;7.57;;
51838;SDS011;37886;53.174;6.368;2023-03-18T17:11:48;9.10;;;8.23;;
51838;SDS011;37886;53.174;6.368;2023-03-18T17:16:56;10.63;;;9.65;;